Time;durP1;ratioP1;P1;durP2;ratioP2;P2;SDS_P1;SDS_P2;PMS_P1;PMS_P2;Temp;Humidity;BMP_temperature;BMP_pressure;BME280_temperature;BME280_humidity;BME280_pressure;Samples;Min_cycle;Max_cycle;Signal;HPM_P1;HPM_P2
2022/01/22 00:00:32;;;;;;;21.77;7.78;;;;;;;3.42;92.68;103343.88;5029946;28;20029;-72
2022/01/22 00:02:57;;;;;;;16.02;7.57;;;;;;;3.42;92.71;103346.50;5020711;28;20515;-72
2022/01/22 00:05:23;;;;;;;17.40;7.57;;;;;;;3.41;92.94;103344.75;5031216;28;20036;-72
2022/01/22 00:07:49;;;;;;;17.30;7.50;;;;;;;3.43;92.63;103348.22;5031118;28;20025;-72
2022/01/22 00:10:18;;;;;;;17.85;7.55;;;;;;;3.42;92.72;103343.88;5031378;28;20029;-73
2022/01/22 00:14:23;;;;;;;17.65;7.18;;;;;;;3.43;92.87;103340.34;5030443;28;20064;-73
2022/01/22 00:15:33;;;;;;;15.43;7.15;;;;;;;3.44;92.30;103328.97;5030956;28;20048;-73
2022/01/22 00:17:58;;;;;;;17.85;7.10;;;;;;;3.43;92.82;103335.97;5016634;28;20030;-73
2022/01/22 00:20:25;;;;;;;15.45;6.80;;;;;;;3.42;92.71;103333.34;5031964;28;20041;-73
2022/01/22 00:22:52;;;;;;;14.60;6.93;;;;;;;3.44;92.81;103335.06;5028101;28;20029;-73
2022/01/22 00:25:20;;;;;;;13.50;6.63;;;;;;;3.44;92.87;103334.22;5031085;28;20041;-73
2022/01/22 00:27:47;;;;;;;18.48;6.75;;;;;;;3.43;92.74;103330.72;5031024;28;20083;-73
2022/01/22 00:30:17;;;;;;;18.00;6.28;;;;;;;3.44;92.79;103324.56;5024925;28;20033;-73
2022/01/22 00:32:43;;;;;;;17.88;6.53;;;;;;;3.44;92.77;103323.72;5024262;28;20033;-73
2022/01/22 00:35:08;;;;;;;17.95;6.75;;;;;;;3.44;92.58;103318.44;5031372;28;20033;-73
2022/01/22 00:37:36;;;;;;;13.48;6.10;;;;;;;3.43;92.74;103312.34;5023506;28;20052;-73
2022/01/22 00:40:03;;;;;;;14.95;6.45;;;;;;;3.43;92.78;103307.06;5030813;28;20032;-73
2022/01/22 00:42:31;;;;;;;16.75;6.72;;;;;;;3.44;92.76;103313.19;5031288;28;20032;-73
2022/01/22 00:44:57;;;;;;;18.02;6.75;;;;;;;3.43;92.67;103314.97;5029857;28;20049;-73
2022/01/22 00:47:22;;;;;;;15.95;6.65;;;;;;;3.44;92.80;103318.44;5030747;28;20029;-72
2022/01/22 00:49:48;;;;;;;14.68;7.45;;;;;;;3.43;92.97;103314.06;5030910;28;20029;-72
2022/01/22 00:52:13;;;;;;;19.33;7.45;;;;;;;3.43;93.01;103314.06;5030337;28;20454;-71
2022/01/22 00:54:39;;;;;;;16.00;7.60;;;;;;;3.44;92.88;103313.19;5021006;28;20105;-72
2022/01/22 00:57:05;;;;;;;18.20;8.13;;;;;;;3.44;93.02;103308.81;5027877;28;20037;-71
2022/01/22 00:59:30;;;;;;;15.63;7.63;;;;;;;3.43;92.88;103312.34;5025719;28;20033;-72
2022/01/22 01:01:55;;;;;;;15.35;7.43;;;;;;;3.44;93.12;103313.19;5025860;28;20044;-72
2022/01/22 01:04:21;;;;;;;19.02;7.95;;;;;;;3.45;93.06;103321.06;5030211;28;20494;-72
2022/01/22 01:06:47;;;;;;;18.23;8.00;;;;;;;3.44;93.28;103321.06;5023114;28;20033;-71
2022/01/22 01:09:12;;;;;;;13.18;8.25;;;;;;;3.45;93.17;103328.94;5030544;28;20036;-72
2022/01/22 01:11:44;;;;;;;18.27;7.97;;;;;;;3.45;93.04;103328.94;5025501;28;20033;-72
2022/01/22 01:14:15;;;;;;;21.98;9.13;;;;;;;3.42;93.04;103328.09;5025906;28;20287;-71
2022/01/22 01:36:06;;;;;;;18.10;9.07;;;;;;;3.50;93.14;103318.41;5020977;28;20059;-71
2022/01/22 01:38:38;;;;;;;17.85;9.43;;;;;;;3.49;93.11;103322.78;5032632;28;20546;-72
2022/01/22 01:41:13;;;;;;;15.63;9.48;;;;;;;3.50;93.07;103321.91;5021386;28;20037;-72
2022/01/22 01:43:38;;;;;;;20.45;10.27;;;;;;;3.51;93.25;103335.91;5033864;28;20048;-73
2022/01/22 01:46:04;;;;;;;19.80;10.45;;;;;;;3.51;93.24;103338.53;5021487;28;20037;-73
2022/01/22 01:48:36;;;;;;;16.58;10.05;;;;;;;3.51;93.41;103336.81;5033857;28;20053;-72
2022/01/22 01:51:02;;;;;;;15.25;10.40;;;;;;;3.52;93.72;103335.03;5033302;28;20060;-73
2022/01/22 01:58:22;;;;;;;19.50;11.45;;;;;;;3.52;93.66;103324.53;5030008;28;20044;-73
2022/01/22 02:00:48;;;;;;;16.65;11.32;;;;;;;3.53;93.95;103323.66;5027280;28;20021;-73
2022/01/22 02:03:13;;;;;;;21.20;11.77;;;;;;;3.54;93.80;103324.50;5033762;28;20079;-73
2022/01/22 02:05:39;;;;;;;19.33;11.57;;;;;;;3.52;93.95;103320.13;5030229;28;20029;-73
2022/01/22 02:08:05;;;;;;;20.85;12.10;;;;;;;3.53;93.86;103313.16;5029499;28;20026;-73
2022/01/22 02:10:35;;;;;;;20.38;11.70;;;;;;;3.54;94.05;103314.00;5033937;28;20479;-72
2022/01/22 02:23:45;;;;;;;30.08;14.40;;;;;;;3.57;94.15;103324.50;5029352;28;20545;-72
2022/01/22 02:26:13;;;;;;;23.88;16.33;;;;;;;3.58;94.36;103326.22;5033517;28;20407;-72
2022/01/22 02:28:40;;;;;;;25.70;15.77;;;;;;;3.59;94.57;103325.34;5033279;28;20030;-73
2022/01/22 02:31:13;;;;;;;29.05;16.67;;;;;;;3.58;94.97;103313.09;5030208;28;20431;-73
2022/01/22 02:36:19;;;;;;;24.45;16.85;;;;;;;3.58;95.26;103321.88;5033604;28;20034;-73
2022/01/22 02:41:23;;;;;;;29.92;18.42;;;;;;;3.59;95.63;103318.34;5019318;28;20072;-73
2022/01/22 02:43:48;;;;;;;30.42;17.88;;;;;;;3.60;95.37;103313.97;5032569;28;20053;-72
2022/01/22 02:46:16;;;;;;;30.30;18.33;;;;;;;3.59;95.58;103320.09;5032168;28;20056;-73
2022/01/22 02:48:42;;;;;;;25.88;19.27;;;;;;;3.59;95.64;103317.47;5032851;28;20021;-71
2022/01/22 02:51:07;;;;;;;23.23;17.40;;;;;;;3.59;95.83;103318.34;5030159;28;20036;-73
2022/01/22 02:53:32;;;;;;;24.23;17.73;;;;;;;3.58;95.74;103324.50;5032792;28;20052;-72
2022/01/22 02:55:58;;;;;;;26.95;17.35;;;;;;;3.60;95.55;103324.47;5032653;28;20029;-73
2022/01/22 02:58:24;;;;;;;30.88;18.80;;;;;;;3.60;95.87;103327.13;5033046;28;20048;-73
2022/01/22 03:00:49;;;;;;;24.75;17.83;;;;;;;3.60;95.79;103327.13;5026409;28;20483;-72
2022/01/22 03:03:14;;;;;;;28.90;18.42;;;;;;;3.61;96.01;103328.84;5029818;28;20036;-73
2022/01/22 03:05:40;;;;;;;29.60;19.27;;;;;;;3.61;96.01;103327.06;5023582;28;20026;-72
2022/01/22 03:08:08;;;;;;;27.58;18.42;;;;;;;3.61;96.00;103339.34;5032358;28;20025;-73
2022/01/22 03:10:34;;;;;;;25.60;19.33;;;;;;;3.61;96.29;103334.94;5023428;28;20034;-73
2022/01/22 03:18:09;;;;;;;24.98;18.52;;;;;;;3.62;96.30;103327.97;5032434;28;20439;-72
2022/01/22 03:29:00;;;;;;;31.63;20.58;;;;;;;3.61;96.54;103323.59;5026420;28;20125;-72
2022/01/22 03:31:26;;;;;;;29.98;20.55;;;;;;;3.62;96.67;103330.59;5031431;28;20021;-72
2022/01/22 03:33:52;;;;;;;27.98;19.02;;;;;;;3.61;96.75;103328.84;5030159;28;20060;-73
2022/01/22 03:36:19;;;;;;;35.67;22.48;;;;;;;3.62;96.89;103330.59;5028822;28;20356;-72
2022/01/22 03:38:44;;;;;;;34.45;23.25;;;;;;;3.62;97.01;103327.97;5026982;28;20021;-71
2022/01/22 03:41:10;;;;;;;35.28;22.58;;;;;;;3.62;97.07;103328.81;5031753;28;20036;-71
2022/01/22 03:43:38;;;;;;;32.30;23.33;;;;;;;3.63;97.05;103329.69;5029641;28;20021;-71
2022/01/22 03:46:04;;;;;;;32.37;22.57;;;;;;;3.63;97.29;103333.22;5029266;28;20483;-72
2022/01/22 03:48:29;;;;;;;35.95;22.85;;;;;;;3.63;97.11;103329.69;5031636;28;20025;-71
2022/01/22 03:50:54;;;;;;;32.50;23.10;;;;;;;3.64;97.51;103334.06;5017945;28;20030;-71
2022/01/22 03:53:20;;;;;;;31.42;23.83;;;;;;;3.65;97.37;103338.47;5030293;28;20411;-71
2022/01/22 03:58:23;;;;;;;35.65;26.33;;;;;;;3.63;97.57;103325.31;5022433;28;20225;-71
2022/01/22 04:00:52;;;;;;;37.63;26.40;;;;;;;3.66;97.85;103329.66;5031601;28;20032;-71
2022/01/22 04:06:11;;;;;;;40.60;28.65;;;;;;;3.64;98.12;103315.69;5031597;28;20490;-71
2022/01/22 04:08:35;;;;;;;39.17;28.30;;;;;;;3.65;98.28;103322.69;5030068;28;20057;-71
2022/01/22 04:11:02;;;;;;;40.13;28.60;;;;;;;3.66;98.35;103322.69;5026282;28;20029;-71
2022/01/22 04:13:32;;;;;;;40.78;30.30;;;;;;;3.66;98.64;103321.78;5028810;28;20494;-71
2022/01/22 04:15:58;;;;;;;41.60;28.98;;;;;;;3.66;98.31;103321.78;5031236;28;20021;-72
2022/01/22 04:26:42;;;;;;;45.65;30.73;;;;;;;3.67;98.74;103316.53;5028062;28;20071;-72
2022/01/22 04:29:08;;;;;;;41.33;30.85;;;;;;;3.68;98.73;103323.53;5030914;28;20515;-72
2022/01/22 04:31:35;;;;;;;42.65;31.08;;;;;;;3.68;98.88;103320.91;5029859;28;20053;-72
2022/01/22 04:34:00;;;;;;;43.17;32.67;;;;;;;3.68;98.42;103314.75;5028992;28;20064;-72
2022/01/22 04:36:25;;;;;;;50.05;32.80;;;;;;;3.69;98.92;103320.00;5030739;28;20072;-72
2022/01/22 04:38:51;;;;;;;47.53;31.92;;;;;;;3.69;98.68;103314.75;5030700;28;20034;-72
2022/01/22 04:41:16;;;;;;;46.78;32.60;;;;;;;3.72;99.37;103320.88;5031186;28;20029;-72
2022/01/22 04:43:43;;;;;;;42.85;31.92;;;;;;;3.72;98.84;103324.38;5026639;28;20022;-72
2022/01/22 04:56:42;;;;;;;45.05;32.53;;;;;;;3.75;99.09;103326.09;5017981;28;20454;-72
2022/01/22 04:59:08;;;;;;;48.53;31.75;;;;;;;3.76;99.15;103330.47;5028483;28;20029;-71
2022/01/22 05:01:33;;;;;;;44.38;32.45;;;;;;;3.75;99.11;103328.72;5028599;28;20029;-71
2022/01/22 05:03:59;;;;;;;45.10;32.83;;;;;;;3.77;99.12;103322.59;5019756;28;20084;-72
2022/01/22 05:06:26;;;;;;;47.70;32.22;;;;;;;3.77;99.10;103316.47;5024096;28;20057;-72
2022/01/22 05:08:52;;;;;;;42.72;30.70;;;;;;;3.78;99.24;103326.97;5026163;28;20025;-72
2022/01/22 05:11:18;;;;;;;45.47;31.33;;;;;;;3.80;99.13;103319.06;5028932;28;20030;-72
2022/01/22 05:13:43;;;;;;;43.08;32.88;;;;;;;3.80;99.22;103316.44;5029789;28;20083;-72
2022/01/22 05:16:08;;;;;;;48.13;32.97;;;;;;;3.80;99.10;103317.31;5025742;28;20029;-73
2022/01/22 05:18:41;;;;;;;47.53;32.08;;;;;;;3.80;99.13;103319.94;5030400;28;20036;-73
2022/01/22 05:21:10;;;;;;;49.70;32.28;;;;;;;3.81;99.25;103313.78;5029327;28;20037;-73
2022/01/22 05:23:37;;;;;;;41.60;31.08;;;;;;;3.83;99.25;103325.16;5029561;28;20033;-72
2022/01/22 05:26:07;;;;;;;42.90;32.28;;;;;;;3.82;99.39;103318.16;5045315;28;20036;-72
2022/01/22 05:31:34;;;;;;;43.65;30.83;;;;;;;3.85;99.38;103319.91;5017937;28;20649;-73
2022/01/22 05:39:25;;;;;;;48.40;31.52;;;;;;;3.86;99.55;103313.72;5018514;28;20479;-72
2022/01/22 05:41:51;;;;;;;47.55;31.20;;;;;;;3.87;99.48;103313.72;5029946;28;20026;-72
2022/01/22 05:44:17;;;;;;;46.30;32.70;;;;;;;3.87;99.45;103315.50;5021169;28;20057;-72
2022/01/22 05:46:43;;;;;;;43.72;31.17;;;;;;;3.88;99.31;103323.38;5029932;28;20017;-72
2022/01/22 05:49:08;;;;;;;44.20;30.95;;;;;;;3.87;99.25;103316.34;5029962;28;20026;-71
2022/01/22 05:51:36;;;;;;;45.53;30.90;;;;;;;3.88;99.47;103322.47;5029986;28;20025;-72
2022/01/22 05:59:37;;;;;;;48.33;31.13;;;;;;;3.88;99.44;103320.75;5030127;28;20048;-71
2022/01/22 06:02:07;;;;;;;44.72;29.70;;;;;;;3.89;99.44;103327.72;5020766;28;20033;-72
2022/01/22 06:04:32;;;;;;;41.58;29.35;;;;;;;3.91;98.80;103325.06;5029976;28;20079;-71
2022/01/22 06:06:58;;;;;;;38.30;29.50;;;;;;;3.89;99.38;103327.72;5023631;28;20029;-72
2022/01/22 06:09:24;;;;;;;47.97;30.67;;;;;;;3.93;99.46;103333.84;5024998;28;20029;-71
2022/01/22 06:11:57;;;;;;;48.30;30.27;;;;;;;3.91;99.57;103327.72;5029752;28;20029;-71
2022/01/22 06:14:22;;;;;;;42.45;29.75;;;;;;;3.94;99.72;103329.47;5027673;28;20140;-71
2022/01/22 06:16:48;;;;;;;39.90;29.27;;;;;;;3.94;99.55;103339.97;5031796;28;20550;-72
2022/01/22 06:19:15;;;;;;;45.75;29.83;;;;;;;3.94;99.35;103335.56;5033118;28;20520;-72
2022/01/22 06:21:40;;;;;;;42.08;28.88;;;;;;;3.95;99.70;103333.84;5023387;28;20037;-71
2022/01/22 06:24:06;;;;;;;43.42;31.00;;;;;;;3.96;99.72;103331.16;5033125;28;20036;-70
2022/01/22 06:26:32;;;;;;;41.45;29.02;;;;;;;3.97;99.63;103329.44;5019393;28;20033;-70
2022/01/22 06:28:59;;;;;;;47.17;30.48;;;;;;;3.96;99.95;103333.81;5032872;28;20032;-71
2022/01/22 06:31:24;;;;;;;45.28;28.75;;;;;;;3.96;99.80;103328.53;5031946;28;20095;-71
2022/01/22 06:33:49;;;;;;;46.13;29.88;;;;;;;3.97;99.83;103326.81;5033271;28;20531;-71
2022/01/22 06:36:15;;;;;;;45.83;29.50;;;;;;;3.96;99.94;103328.53;5032858;28;20037;-71
2022/01/22 06:38:40;;;;;;;42.95;28.40;;;;;;;3.98;100.00;103332.06;5031741;28;20061;-71
2022/01/22 06:43:49;;;;;;;41.03;28.25;;;;;;;3.98;99.82;103332.06;5027820;28;20136;-71
2022/01/22 06:46:14;;;;;;;44.10;27.65;;;;;;;3.99;99.66;103343.44;5030169;28;20022;-71
2022/01/22 06:48:40;;;;;;;42.05;27.58;;;;;;;4.00;99.68;103339.94;5032774;28;20468;-71
2022/01/22 06:51:05;;;;;;;44.90;27.33;;;;;;;4.00;99.79;103345.19;5032598;28;20033;-72
2022/01/22 06:53:35;;;;;;;41.78;26.40;;;;;;;4.01;99.79;103345.19;5031183;28;20052;-71
2022/01/22 06:56:02;;;;;;;41.22;26.80;;;;;;;4.00;99.63;103340.78;5019832;28;20018;-71
2022/01/22 06:58:28;;;;;;;34.05;25.30;;;;;;;4.02;99.63;103349.53;5032703;28;20109;-71
2022/01/22 07:00:54;;;;;;;37.53;25.48;;;;;;;4.04;99.81;103349.53;5028446;28;20497;-71
2022/01/22 07:03:19;;;;;;;37.53;26.30;;;;;;;4.04;99.69;103358.28;5031868;28;20017;-71
2022/01/22 07:05:44;;;;;;;35.80;24.67;;;;;;;4.05;99.49;103352.13;5019793;28;20045;-72
2022/01/22 07:08:10;;;;;;;38.08;25.10;;;;;;;4.05;99.64;103353.91;5033545;28;20029;-72
2022/01/22 07:10:35;;;;;;;39.65;25.20;;;;;;;4.07;99.45;103347.72;5032767;28;20034;-72
2022/01/22 07:13:01;;;;;;;41.80;26.58;;;;;;;4.07;99.47;103350.34;5023112;28;20026;-72
2022/01/22 07:15:28;;;;;;;40.03;26.13;;;;;;;4.09;99.61;103360.88;5026945;28;20431;-71
2022/01/22 07:17:54;;;;;;;44.10;26.48;;;;;;;4.10;99.52;103374.88;5029480;28;20071;-72
2022/01/22 07:20:27;;;;;;;38.38;25.95;;;;;;;4.08;99.77;103378.41;5021632;28;20531;-72
2022/01/22 07:23:00;;;;;;;35.65;24.23;;;;;;;4.11;99.66;103381.91;5030707;28;20041;-71
2022/01/22 07:25:25;;;;;;;41.03;25.70;;;;;;;4.12;99.57;103389.78;5017116;28;20408;-72
2022/01/22 07:27:51;;;;;;;41.85;24.55;;;;;;;4.13;99.63;103381.00;5015897;28;20026;-71
2022/01/22 07:30:16;;;;;;;40.28;24.77;;;;;;;4.14;99.87;103389.78;5019989;28;20119;-71
2022/01/22 07:32:44;;;;;;;38.33;24.98;;;;;;;4.14;100.00;103384.50;5012088;28;20478;-72
2022/01/22 07:35:15;;;;;;;37.97;24.67;;;;;;;4.14;100.00;103388.00;5016175;28;20095;-72
2022/01/22 07:37:40;;;;;;;40.53;25.83;;;;;;;4.16;100.00;103390.63;5020855;28;20105;-71
2022/01/22 07:40:08;;;;;;;40.90;26.45;;;;;;;4.16;100.00;103390.63;5015985;28;20439;-72
2022/01/22 07:42:33;;;;;;;36.05;25.08;;;;;;;4.17;100.00;103393.25;5015563;28;20029;-72
2022/01/22 07:44:59;;;;;;;39.40;25.20;;;;;;;4.17;100.00;103387.13;5012882;28;20484;-72
2022/01/22 07:47:24;;;;;;;37.97;25.63;;;;;;;4.18;100.00;103396.72;5018649;28;20503;-72
2022/01/22 07:49:49;;;;;;;40.78;25.45;;;;;;;4.19;100.00;103394.09;5043517;28;20312;-72
2022/01/22 07:52:15;;;;;;;38.72;25.30;;;;;;;4.20;100.00;103394.97;5027092;28;20049;-72
2022/01/22 07:54:40;;;;;;;45.13;25.25;;;;;;;4.20;100.00;103392.34;5017087;28;20076;-71
2022/01/22 07:57:05;;;;;;;42.80;25.30;;;;;;;4.21;100.00;103392.34;5042525;28;20037;-72
2022/01/22 07:59:32;;;;;;;41.30;25.25;;;;;;;4.20;100.00;103382.69;5047934;28;20033;-71
2022/01/22 08:01:59;;;;;;;38.97;24.33;;;;;;;4.20;100.00;103390.59;5032311;28;20081;-72
2022/01/22 08:04:25;;;;;;;35.67;24.20;;;;;;;4.21;100.00;103400.25;5031974;28;20042;-72
2022/01/22 08:06:54;;;;;;;39.20;25.25;;;;;;;4.20;100.00;103385.31;5049430;28;20029;-72
2022/01/22 08:09:20;;;;;;;43.78;25.73;;;;;;;4.22;100.00;103393.22;5032824;28;20030;-72
2022/01/22 08:11:45;;;;;;;43.45;25.95;;;;;;;4.24;100.00;103388.78;5011911;28;20056;-71
2022/01/22 08:14:10;;;;;;;41.05;24.92;;;;;;;4.25;100.00;103394.03;5028621;28;20040;-71
2022/01/22 08:16:37;;;;;;;39.85;24.63;;;;;;;4.26;100.00;103387.00;5019134;28;20500;-71
2022/01/22 08:19:03;;;;;;;37.90;24.80;;;;;;;4.26;100.00;103387.00;5010382;28;20026;-72
2022/01/22 08:21:28;;;;;;;38.33;23.75;;;;;;;4.28;100.00;103384.38;5012920;28;20117;-72
2022/01/22 08:23:53;;;;;;;35.95;24.73;;;;;;;4.29;100.00;103394.88;5012770;28;20207;-72
2022/01/22 08:26:23;;;;;;;36.75;23.65;;;;;;;4.31;99.92;103397.50;5010092;28;20109;-71
2022/01/22 08:28:57;;;;;;;34.70;24.15;;;;;;;4.31;99.90;103394.88;5009961;28;20473;-72
2022/01/22 08:31:37;;;;;;;41.45;23.63;;;;;;;4.34;100.00;103394.84;5010715;28;20052;-71
2022/01/22 08:36:48;;;;;;;34.92;21.77;;;;;;;4.37;100.00;103385.16;5029207;28;20044;-71
2022/01/22 08:39:17;;;;;;;36.28;23.30;;;;;;;4.39;99.75;103382.53;5021027;28;20055;-73
2022/01/22 08:41:44;;;;;;;32.60;21.67;;;;;;;4.40;99.83;103384.28;5025437;28;20041;-73
2022/01/22 08:44:10;;;;;;;36.67;22.83;;;;;;;4.41;99.75;103386.00;5017824;28;20037;-72
2022/01/22 08:46:36;;;;;;;38.08;22.05;;;;;;;4.43;99.73;103387.75;5018304;28;20041;-72
2022/01/22 08:49:04;;;;;;;35.67;20.92;;;;;;;4.45;99.74;103379.84;5018104;28;20041;-72
2022/01/22 08:51:30;;;;;;;33.88;20.92;;;;;;;4.47;99.72;103380.69;5024807;28;20111;-72
2022/01/22 08:53:55;;;;;;;35.08;21.13;;;;;;;4.51;99.55;103384.16;5030352;28;20088;-73
2022/01/22 08:56:21;;;;;;;31.75;20.55;;;;;;;4.52;99.42;103389.41;5027216;28;20050;-72
2022/01/22 08:58:46;;;;;;;33.05;20.80;;;;;;;4.54;99.48;103392.03;5030641;28;20112;-72
2022/01/22 09:01:11;;;;;;;31.73;19.35;;;;;;;4.56;99.39;103398.13;5017002;28;20042;-73
2022/01/22 09:03:37;;;;;;;37.00;19.75;;;;;;;4.59;99.23;103403.38;5028421;28;20096;-73
2022/01/22 09:06:04;;;;;;;30.60;20.27;;;;;;;4.58;99.21;103396.34;5023879;28;20040;-73
2022/01/22 09:08:30;;;;;;;30.10;19.55;;;;;;;4.63;99.13;103405.97;5031917;28;20029;-73
2022/01/22 09:10:55;;;;;;;30.60;19.25;;;;;;;4.66;99.10;103412.06;5019109;28;20495;-72
2022/01/22 09:13:22;;;;;;;29.17;19.90;;;;;;;4.66;99.21;103420.84;5031894;28;20554;-72
2022/01/22 09:15:49;;;;;;;31.88;19.73;;;;;;;4.68;99.14;103416.47;5031192;28;20556;-73
2022/01/22 09:18:14;;;;;;;37.10;20.38;;;;;;;4.72;99.18;103423.41;5024639;28;20040;-73
2022/01/22 09:23:06;;;;;;;30.38;20.38;;;;;;;4.77;99.29;103426.00;5018908;28;20514;-71
2022/01/22 09:25:32;;;;;;;32.97;19.65;;;;;;;4.78;99.22;103427.72;5028656;28;20068;-71
2022/01/22 09:27:58;;;;;;;30.92;19.27;;;;;;;4.79;99.05;103426.84;5031245;28;20030;-72
2022/01/22 09:30:23;;;;;;;31.42;19.40;;;;;;;4.81;99.03;103430.34;5027791;28;20457;-72
2022/01/22 09:32:48;;;;;;;32.38;19.70;;;;;;;4.82;99.02;103418.94;5035008;28;20035;-72
2022/01/22 09:35:14;;;;;;;35.83;19.60;;;;;;;4.84;98.93;103416.28;5031432;28;20048;-72
2022/01/22 09:37:39;;;;;;;31.48;20.23;;;;;;;4.86;98.81;103417.13;5024114;28;20038;-72
2022/01/22 09:40:06;;;;;;;31.77;19.15;;;;;;;4.86;98.83;103423.25;5033864;28;20018;-69
2022/01/22 09:42:31;;;;;;;29.33;19.58;;;;;;;4.89;98.76;103430.28;5036409;28;20038;-72
2022/01/22 09:44:57;;;;;;;37.45;20.27;;;;;;;4.91;98.85;103445.19;5032496;28;20068;-70
2022/01/22 09:47:22;;;;;;;31.98;21.02;;;;;;;4.93;98.54;103439.88;5020586;28;20048;-71
2022/01/22 09:49:48;;;;;;;33.65;20.58;;;;;;;4.95;98.70;103448.66;5013582;28;20040;-71
2022/01/22 09:52:14;;;;;;;32.28;21.00;;;;;;;4.95;98.54;103454.78;5021419;28;20119;-71
2022/01/22 09:54:39;;;;;;;38.35;20.52;;;;;;;4.98;98.59;103459.16;5000260;28;20464;-71
2022/01/22 09:57:05;;;;;;;33.33;19.98;;;;;;;5.00;98.55;103455.59;5016316;28;20056;-71
2022/01/22 09:59:31;;;;;;;30.25;20.80;;;;;;;5.02;98.45;103454.72;5011516;28;20559;-71
2022/01/22 10:02:10;;;;;;;36.13;20.88;;;;;;;5.05;98.51;103452.91;5016652;28;20137;-71
2022/01/22 10:04:36;;;;;;;;;;;;;;;5.09;98.27;103449.34;5032403;28;20037;-71
2022/01/22 10:07:02;;;;;;;31.42;20.17;;;;;;;5.08;98.38;103454.63;5017073;28;20291;-71
2022/01/22 10:09:34;;;;;;;29.30;20.70;;;;;;;5.10;98.34;103453.72;5019975;28;20014;-71
2022/01/22 10:12:16;;;;;;;28.08;21.13;;;;;;;5.12;98.45;103456.34;5014118;28;20046;-72
2022/01/22 10:15:03;;;;;;;32.13;20.38;;;;;;;5.15;98.22;103457.19;5023681;28;20033;-72
2022/01/22 10:17:52;;;;;;;33.78;21.58;;;;;;;5.16;98.12;103455.41;5017532;28;20087;-71
2022/01/22 10:20:20;;;;;;;31.27;20.67;;;;;;;5.17;98.23;103457.16;5016930;28;20076;-71
2022/01/22 10:22:46;;;;;;;32.08;22.15;;;;;;;5.17;98.28;103459.78;5017461;28;20037;-71
2022/01/22 10:25:20;;;;;;;33.30;20.42;;;;;;;5.20;98.27;103459.78;5023301;28;20447;-71
2022/01/22 10:27:55;;;;;;;31.85;20.73;;;;;;;5.22;98.09;103457.13;5037498;28;20042;-71
2022/01/22 10:30:21;;;;;;;33.60;20.90;;;;;;;5.22;97.93;103455.34;5033462;28;20148;-71
2022/01/22 10:32:57;;;;;;;30.85;19.73;;;;;;;5.25;97.76;103457.09;5023848;28;20108;-71
2022/01/22 10:35:26;;;;;;;33.75;21.70;;;;;;;5.25;97.82;103457.09;5030733;28;20039;-71
2022/01/22 10:37:56;;;;;;;33.78;20.35;;;;;;;5.28;97.89;103459.66;5022549;28;20029;-71
2022/01/22 10:40:30;;;;;;;32.63;20.63;;;;;;;5.27;97.57;103453.53;5018045;28;20544;-71
2022/01/22 10:48:43;;;;;;;;;;;;;;;5.38;97.65;103451.63;5026781;28;20038;-71
2022/01/22 10:51:14;;;;;;;30.02;20.55;;;;;;;5.35;97.58;103459.56;5027453;28;20007;-72
2022/01/22 10:53:42;;;;;;;27.98;20.73;;;;;;;5.37;97.33;103468.31;5018654;28;20531;-71
2022/01/22 10:56:09;;;;;;;35.08;23.13;;;;;;;5.37;97.58;103462.19;5045645;28;20044;-71
2022/01/22 10:58:35;;;;;;;34.28;22.48;;;;;;;5.37;97.13;103460.41;5026019;28;20054;-71
2022/01/22 11:01:03;;;;;;;34.25;22.45;;;;;;;5.40;97.00;103464.78;5030127;28;20029;-71
2022/01/22 11:03:28;;;;;;;29.90;20.60;;;;;;;5.41;96.83;103466.50;5026887;28;20051;-71
2022/01/22 11:05:55;;;;;;;30.88;21.00;;;;;;;5.41;96.75;103466.50;5031393;28;20038;-71
2022/01/22 11:08:21;;;;;;;29.67;20.88;;;;;;;5.43;97.04;103461.22;5027447;28;20029;-71
2022/01/22 11:10:46;;;;;;;29.42;20.40;;;;;;;5.43;96.64;103453.31;5030145;28;20033;-71
2022/01/22 11:13:12;;;;;;;32.58;22.08;;;;;;;5.44;96.73;103461.22;5030708;28;20163;-71
2022/01/22 11:15:43;;;;;;;33.22;21.60;;;;;;;5.43;96.44;103451.56;5027044;28;20427;-71
2022/01/22 11:18:10;;;;;;;30.27;21.38;;;;;;;5.45;96.13;103448.94;5030552;28;20032;-71
2022/01/22 11:20:37;;;;;;;30.77;21.60;;;;;;;5.47;95.81;103452.41;5031640;28;20107;-71
2022/01/22 11:23:02;;;;;;;29.30;20.77;;;;;;;5.47;95.64;103444.50;5027470;28;20025;-71
2022/01/22 11:25:28;;;;;;;31.40;21.23;;;;;;;5.47;95.61;103436.59;5032368;28;20033;-70
2022/01/22 11:27:53;;;;;;;31.33;22.65;;;;;;;5.49;95.83;103437.44;5031429;28;20040;-71
2022/01/22 11:30:25;;;;;;;32.90;23.48;;;;;;;5.48;95.48;103433.94;5020792;28;20473;-72
2022/01/22 11:33:24;;;;;;;30.88;23.75;;;;;;;5.54;96.09;103439.09;5031652;28;20025;-72
2022/01/22 11:36:17;;;;;;;30.98;22.63;;;;;;;5.55;95.91;103434.72;4998173;28;20041;-72
2022/01/22 11:38:52;;;;;;;37.55;23.52;;;;;;;5.55;95.70;103440.00;5028979;28;20033;-72
2022/01/22 11:41:21;;;;;;;33.45;23.95;;;;;;;5.55;95.44;103435.59;5031121;28;20025;-72
2022/01/22 11:43:58;;;;;;;;;;;;;;;5.61;95.97;103429.34;5025990;28;20030;-72
2022/01/22 11:46:50;;;;;;;33.53;23.52;;;;;;;5.59;95.45;103432.91;5021646;28;20197;-71
2022/01/22 11:49:21;;;;;;;33.35;24.08;;;;;;;5.58;95.30;103426.78;5029522;28;20073;-71
2022/01/22 11:51:50;;;;;;;39.25;24.83;;;;;;;5.58;95.11;103429.41;5030368;28;20375;-72
2022/01/22 11:54:17;;;;;;;35.42;23.73;;;;;;;5.56;94.75;103426.78;5028340;28;20041;-72
2022/01/22 11:56:47;;;;;;;32.63;24.90;;;;;;;5.59;94.75;103431.13;5021796;28;20033;-71
2022/01/22 11:59:32;;;;;;;39.97;24.50;;;;;;;5.61;94.94;103433.75;5024180;28;20037;-72
2022/01/22 12:02:02;;;;;;;33.35;25.45;;;;;;;5.59;95.20;103427.63;5031064;28;20024;-72
2022/01/22 12:04:34;;;;;;;35.58;25.00;;;;;;;5.62;95.28;103427.59;5017103;28;20068;-71
2022/01/22 12:07:02;;;;;;;39.55;25.67;;;;;;;5.64;95.12;103431.94;5046861;28;20108;-71
2022/01/22 12:10:17;;;;;;;36.58;24.27;;;;;;;5.66;95.04;103438.09;5037668;28;20095;-72
2022/01/22 12:15:20;;;;;;;31.73;24.48;;;;;;;5.64;94.90;103425.81;5019217;28;20033;-71
2022/01/22 12:18:02;;;;;;;38.83;27.42;;;;;;;5.64;94.87;103429.31;5030374;28;20305;-72
2022/01/22 12:23:07;;;;;;;34.97;25.73;;;;;;;5.65;95.17;103427.56;5033993;28;20041;-71
2022/01/22 12:25:35;;;;;;;35.13;25.05;;;;;;;5.65;95.00;103431.06;5026570;28;20049;-71
2022/01/22 12:28:03;;;;;;;36.28;26.63;;;;;;;5.64;94.96;103429.31;5012446;28;20451;-71
2022/01/22 12:30:47;;;;;;;38.72;25.73;;;;;;;5.66;95.41;103434.56;5027741;28;20061;-71
2022/01/22 12:33:27;;;;;;;35.08;24.48;;;;;;;5.67;95.24;103444.22;5019065;28;20056;-72
2022/01/22 12:35:57;;;;;;;36.78;26.25;;;;;;;5.65;95.37;103443.38;5030802;28;20037;-72
2022/01/22 12:38:48;;;;;;;36.33;26.42;;;;;;;5.65;95.26;103443.38;5024846;28;20022;-72
2022/01/22 12:44:10;;;;;;;34.72;25.73;;;;;;;5.65;95.39;103438.09;5031773;28;20435;-71
2022/01/22 12:46:37;;;;;;;40.08;27.00;;;;;;;5.65;95.29;103438.09;5021845;28;20030;-71
2022/01/22 12:49:04;;;;;;;37.30;27.58;;;;;;;5.63;95.32;103426.69;5029739;28;20034;-71
2022/01/22 12:51:30;;;;;;;35.90;26.30;;;;;;;5.63;95.32;103437.22;5031865;28;20394;-71
2022/01/22 12:53:56;;;;;;;40.25;27.27;;;;;;;5.60;94.75;103438.16;5032156;28;20455;-71
2022/01/22 12:59:03;;;;;;;45.38;28.50;;;;;;;5.60;95.61;103438.16;5031817;28;20025;-71
2022/01/22 13:01:31;;;;;;;40.00;28.02;;;;;;;5.59;95.40;103436.41;5017941;28;20033;-71
2022/01/22 13:03:58;;;;;;;36.97;26.35;;;;;;;5.60;95.58;103438.16;5030161;28;20053;-71
2022/01/22 13:06:35;;;;;;;32.92;27.23;;;;;;;5.59;95.33;103444.31;5009697;28;20088;-71
2022/01/22 13:09:01;;;;;;;35.35;26.88;;;;;;;5.59;95.24;103446.09;5029801;28;20029;-71
2022/01/22 13:11:28;;;;;;;39.40;28.23;;;;;;;5.56;95.38;103439.97;5028160;28;20033;-71
2022/01/22 13:13:54;;;;;;;36.65;26.92;;;;;;;5.57;95.49;103441.69;5023086;28;20033;-71
2022/01/22 13:16:21;;;;;;;36.22;27.08;;;;;;;5.57;95.46;103439.06;5029967;28;20030;-71
2022/01/22 13:18:56;;;;;;;35.53;27.00;;;;;;;5.57;95.62;103432.94;5029618;28;20441;-71